sensor_id;sensor_type;location;lat;lon;timestamp;pressure;altitude;pressure_sealevel;temperature;humidity
29063;BME280;71206;48.564;-123.458;2023-08-12T00:01:40;101059.15;;;25.27;34.46
29063;BME280;71206;48.564;-123.458;2023-08-12T00:04:06;101061.58;;;26.46;33.89
29063;BME280;71206;48.564;-123.458;2023-08-12T00:06:31;101062.55;;;26.54;33.47
29063;BME280;71206;48.564;-123.458;2023-08-12T00:08:57;101059.84;;;26.54;33.88
29063;BME280;71206;48.564;-123.458;2023-08-12T00:11:23;101056.93;;;25.01;35.32
29063;BME280;71206;48.564;-123.458;2023-08-12T00:13:48;101053.89;;;25.14;35.89
29063;BME280;71206;48.564;-123.458;2023-08-12T00:16:14;101058.52;;;25.46;35.71
29063;BME280;71206;48.564;-123.458;2023-08-12T00:18:39;101058.61;;;25.81;35.10
29063;BME280;71206;48.564;-123.458;2023-08-12T00:21:09;101059.78;;;24.61;36.52
29063;BME280;71206;48.564;-123.458;2023-08-12T00:23:31;101060.43;;;25.95;35.34
29063;BME280;71206;48.564;-123.458;2023-08-12T00:25:59;101058.45;;;25.34;35.55
29063;BME280;71206;48.564;-123.458;2023-08-12T00:28:22;101057.35;;;25.17;35.67
29063;BME280;71206;48.564;-123.458;2023-08-12T00:30:49;101058.02;;;25.83;34.89
29063;BME280;71206;48.564;-123.458;2023-08-12T00:33:14;101055.04;;;26.03;34.94
29063;BME280;71206;48.564;-123.458;2023-08-12T00:35:40;101051.42;;;25.98;35.22
29063;BME280;71206;48.564;-123.458;2023-08-12T00:38:05;101050.27;;;25.80;35.07
29063;BME280;71206;48.564;-123.458;2023-08-12T00:40:31;101047.24;;;26.29;34.57
29063;BME280;71206;48.564;-123.458;2023-08-12T00:42:57;101049.18;;;25.23;38.22
29063;BME280;71206;48.564;-123.458;2023-08-12T00:45:23;101053.31;;;25.71;36.49
29063;BME280;71206;48.564;-123.458;2023-08-12T00:47:51;101050.31;;;25.74;35.15
29063;BME280;71206;48.564;-123.458;2023-08-12T00:50:14;101051.06;;;25.95;35.75
29063;BME280;71206;48.564;-123.458;2023-08-12T00:52:39;101046.85;;;26.53;33.77
29063;BME280;71206;48.564;-123.458;2023-08-12T00:55:05;101050.91;;;25.84;34.37
29063;BME280;71206;48.564;-123.458;2023-08-12T00:57:31;101050.98;;;26.48;34.16
29063;BME280;71206;48.564;-123.458;2023-08-12T00:59:56;101053.59;;;26.41;34.38
29063;BME280;71206;48.564;-123.458;2023-08-12T01:02:23;101053.97;;;25.92;35.42
29063;BME280;71206;48.564;-123.458;2023-08-12T01:04:47;101052.97;;;26.84;34.45
29063;BME280;71206;48.564;-123.458;2023-08-12T01:07:14;101049.64;;;27.18;34.40
29063;BME280;71206;48.564;-123.458;2023-08-12T01:09:39;101055.15;;;26.44;35.27
29063;BME280;71206;48.564;-123.458;2023-08-12T01:12:09;101059.81;;;26.44;35.33
29063;BME280;71206;48.564;-123.458;2023-08-12T01:14:37;101055.69;;;26.77;35.82
29063;BME280;71206;48.564;-123.458;2023-08-12T01:16:59;101054.40;;;26.77;35.91
29063;BME280;71206;48.564;-123.458;2023-08-12T01:19:29;101043.69;;;27.21;35.57
29063;BME280;71206;48.564;-123.458;2023-08-12T01:21:48;101040.29;;;27.14;35.39
29063;BME280;71206;48.564;-123.458;2023-08-12T01:24:13;101045.48;;;26.61;35.12
29063;BME280;71206;48.564;-123.458;2023-08-12T01:26:38;101044.59;;;26.98;35.73
29063;BME280;71206;48.564;-123.458;2023-08-12T01:29:04;101041.84;;;27.22;35.20
29063;BME280;71206;48.564;-123.458;2023-08-12T01:31:34;101040.89;;;27.84;35.08
29063;BME280;71206;48.564;-123.458;2023-08-12T01:34:01;101043.26;;;27.67;34.92
29063;BME280;71206;48.564;-123.458;2023-08-12T01:36:21;101041.54;;;27.11;34.98
29063;BME280;71206;48.564;-123.458;2023-08-12T01:38:48;101047.15;;;26.55;35.96
29063;BME280;71206;48.564;-123.458;2023-08-12T01:41:14;101047.54;;;26.58;35.73
29063;BME280;71206;48.564;-123.458;2023-08-12T01:43:40;101047.47;;;27.33;35.57
29063;BME280;71206;48.564;-123.458;2023-08-12T01:46:04;101047.31;;;26.99;35.88
29063;BME280;71206;48.564;-123.458;2023-08-12T01:48:29;101053.69;;;26.59;36.52
29063;BME280;71206;48.564;-123.458;2023-08-12T01:50:55;101054.21;;;26.94;36.11
29063;BME280;71206;48.564;-123.458;2023-08-12T01:53:21;101053.20;;;26.99;36.46
29063;BME280;71206;48.564;-123.458;2023-08-12T01:55:49;101055.08;;;27.38;36.01
29063;BME280;71206;48.564;-123.458;2023-08-12T01:58:12;101056.92;;;27.20;35.75
29063;BME280;71206;48.564;-123.458;2023-08-12T02:00:38;101055.52;;;27.08;36.09
29063;BME280;71206;48.564;-123.458;2023-08-12T02:03:04;101054.23;;;27.57;35.64
29063;BME280;71206;48.564;-123.458;2023-08-12T02:05:33;101055.16;;;27.76;35.36
29063;BME280;71206;48.564;-123.458;2023-08-12T02:07:54;101056.38;;;27.44;36.04
29063;BME280;71206;48.564;-123.458;2023-08-12T02:10:20;101059.75;;;27.32;36.17
29063;BME280;71206;48.564;-123.458;2023-08-12T02:12:46;101059.25;;;27.06;36.62
29063;BME280;71206;48.564;-123.458;2023-08-12T02:15:12;101063.44;;;26.11;37.25
29063;BME280;71206;48.564;-123.458;2023-08-12T02:17:38;101063.11;;;26.04;37.58
29063;BME280;71206;48.564;-123.458;2023-08-12T02:20:04;101067.74;;;25.79;38.47
29063;BME280;71206;48.564;-123.458;2023-08-12T02:22:29;101072.34;;;26.28;37.75
29063;BME280;71206;48.564;-123.458;2023-08-12T02:24:54;101076.27;;;26.77;37.52
29063;BME280;71206;48.564;-123.458;2023-08-12T02:27:21;101080.46;;;26.13;38.04
29063;BME280;71206;48.564;-123.458;2023-08-12T02:29:46;101079.63;;;25.64;38.48
29063;BME280;71206;48.564;-123.458;2023-08-12T02:32:11;101082.79;;;25.02;40.43
29063;BME280;71206;48.564;-123.458;2023-08-12T02:34:37;101084.73;;;24.60;41.42
29063;BME280;71206;48.564;-123.458;2023-08-12T02:37:03;101090.12;;;22.95;44.26
29063;BME280;71206;48.564;-123.458;2023-08-12T02:39:30;101092.70;;;23.69;43.60
29063;BME280;71206;48.564;-123.458;2023-08-12T02:41:54;101095.40;;;25.22;40.87
29063;BME280;71206;48.564;-123.458;2023-08-12T02:44:20;101094.06;;;25.58;39.92
29063;BME280;71206;48.564;-123.458;2023-08-12T02:46:49;101100.38;;;24.53;41.62
29063;BME280;71206;48.564;-123.458;2023-08-12T02:49:12;101096.17;;;25.36;40.03
29063;BME280;71206;48.564;-123.458;2023-08-12T02:51:37;101102.81;;;23.86;43.13
29063;BME280;71206;48.564;-123.458;2023-08-12T02:54:03;101104.17;;;25.36;40.16
29063;BME280;71206;48.564;-123.458;2023-08-12T02:56:29;101104.36;;;25.18;40.83
29063;BME280;71206;48.564;-123.458;2023-08-12T02:58:55;101109.99;;;24.04;43.22
29063;BME280;71206;48.564;-123.458;2023-08-12T03:01:22;101104.75;;;25.47;40.18
29063;BME280;71206;48.564;-123.458;2023-08-12T03:03:46;101108.21;;;24.34;42.46
29063;BME280;71206;48.564;-123.458;2023-08-12T03:06:12;101106.60;;;23.86;44.32
29063;BME280;71206;48.564;-123.458;2023-08-12T03:08:37;101111.97;;;22.88;47.17
29063;BME280;71206;48.564;-123.458;2023-08-12T03:11:03;101109.07;;;23.17;45.59
29063;BME280;71206;48.564;-123.458;2023-08-12T03:13:29;101112.68;;;22.13;48.98
29063;BME280;71206;48.564;-123.458;2023-08-12T03:15:54;101109.68;;;22.52;49.93
29063;BME280;71206;48.564;-123.458;2023-08-12T03:18:20;101111.64;;;21.89;52.26
29063;BME280;71206;48.564;-123.458;2023-08-12T03:20:46;101115.29;;;22.01;52.89
29063;BME280;71206;48.564;-123.458;2023-08-12T03:23:12;101118.18;;;21.46;54.20
29063;BME280;71206;48.564;-123.458;2023-08-12T03:25:37;101119.87;;;21.42;54.60
29063;BME280;71206;48.564;-123.458;2023-08-12T03:28:04;101120.25;;;21.43;56.04
29063;BME280;71206;48.564;-123.458;2023-08-12T03:30:29;101119.24;;;21.17;57.31
29063;BME280;71206;48.564;-123.458;2023-08-12T03:32:55;101121.51;;;21.36;56.49
29063;BME280;71206;48.564;-123.458;2023-08-12T03:35:21;101123.23;;;22.32;54.00
29063;BME280;71206;48.564;-123.458;2023-08-12T03:37:46;101122.29;;;23.02;51.01
29063;BME280;71206;48.564;-123.458;2023-08-12T03:40:12;101128.86;;;22.56;51.79
29063;BME280;71206;48.564;-123.458;2023-08-12T03:42:40;101126.01;;;23.55;49.68
29063;BME280;71206;48.564;-123.458;2023-08-12T03:45:05;101123.41;;;23.93;46.34
29063;BME280;71206;48.564;-123.458;2023-08-12T03:47:29;101126.17;;;23.92;46.30
29063;BME280;71206;48.564;-123.458;2023-08-12T03:49:55;101135.10;;;22.39;51.09
29063;BME280;71206;48.564;-123.458;2023-08-12T03:52:20;101137.86;;;21.95;54.12
29063;BME280;71206;48.564;-123.458;2023-08-12T03:54:46;101138.44;;;21.75;55.63
29063;BME280;71206;48.564;-123.458;2023-08-12T03:57:12;101139.50;;;21.33;58.12
29063;BME280;71206;48.564;-123.458;2023-08-12T03:59:38;101142.77;;;22.23;55.60
29063;BME280;71206;48.564;-123.458;2023-08-12T04:02:04;101142.33;;;21.74;56.63
29063;BME280;71206;48.564;-123.458;2023-08-12T04:04:29;101142.43;;;21.35;58.91
29063;BME280;71206;48.564;-123.458;2023-08-12T04:06:56;101148.28;;;22.80;53.68
29063;BME280;71206;48.564;-123.458;2023-08-12T04:09:21;101153.22;;;21.71;57.54
29063;BME280;71206;48.564;-123.458;2023-08-12T04:11:49;101153.95;;;21.62;58.48
29063;BME280;71206;48.564;-123.458;2023-08-12T04:14:14;101148.11;;;21.30;60.19
29063;BME280;71206;48.564;-123.458;2023-08-12T04:16:39;101148.27;;;20.93;63.51
29063;BME280;71206;48.564;-123.458;2023-08-12T04:19:04;101150.07;;;20.88;62.92
29063;BME280;71206;48.564;-123.458;2023-08-12T04:21:30;101151.12;;;21.33;61.73
29063;BME280;71206;48.564;-123.458;2023-08-12T04:23:55;101149.61;;;21.34;61.95
29063;BME280;71206;48.564;-123.458;2023-08-12T04:26:22;101149.77;;;21.13;62.87
29063;BME280;71206;48.564;-123.458;2023-08-12T04:28:47;101156.50;;;21.79;59.48
29063;BME280;71206;48.564;-123.458;2023-08-12T04:31:13;101164.56;;;22.17;56.37
29063;BME280;71206;48.564;-123.458;2023-08-12T04:33:39;101168.95;;;21.92;58.57
29063;BME280;71206;48.564;-123.458;2023-08-12T04:36:05;101172.48;;;22.24;56.58
29063;BME280;71206;48.564;-123.458;2023-08-12T04:38:30;101173.78;;;23.44;52.17
29063;BME280;71206;48.564;-123.458;2023-08-12T04:40:57;101175.83;;;21.94;56.20
29063;BME280;71206;48.564;-123.458;2023-08-12T04:43:21;101173.86;;;21.67;59.26
29063;BME280;71206;48.564;-123.458;2023-08-12T04:45:48;101171.78;;;21.39;60.04
29063;BME280;71206;48.564;-123.458;2023-08-12T04:48:14;101172.01;;;20.69;63.89
29063;BME280;71206;48.564;-123.458;2023-08-12T04:50:39;101175.04;;;21.85;59.44
29063;BME280;71206;48.564;-123.458;2023-08-12T04:53:05;101175.97;;;21.66;59.84
29063;BME280;71206;48.564;-123.458;2023-08-12T04:55:31;101179.35;;;20.77;63.60
29063;BME280;71206;48.564;-123.458;2023-08-12T04:57:58;101184.47;;;20.60;65.07
29063;BME280;71206;48.564;-123.458;2023-08-12T05:00:23;101187.92;;;21.71;58.82
29063;BME280;71206;48.564;-123.458;2023-08-12T05:02:48;101191.78;;;22.22;57.56
29063;BME280;71206;48.564;-123.458;2023-08-12T05:05:13;101195.72;;;22.80;54.80
29063;BME280;71206;48.564;-123.458;2023-08-12T05:07:39;101199.21;;;22.62;55.03
29063;BME280;71206;48.564;-123.458;2023-08-12T05:10:06;101204.84;;;23.22;52.76
29063;BME280;71206;48.564;-123.458;2023-08-12T05:12:31;101208.53;;;23.71;52.49
29063;BME280;71206;48.564;-123.458;2023-08-12T05:14:56;101200.90;;;22.06;57.16
29063;BME280;71206;48.564;-123.458;2023-08-12T05:17:22;101201.97;;;21.76;59.78
29063;BME280;71206;48.564;-123.458;2023-08-12T05:19:48;101207.90;;;21.04;64.53
29063;BME280;71206;48.564;-123.458;2023-08-12T05:22:15;101206.83;;;20.24;70.55
29063;BME280;71206;48.564;-123.458;2023-08-12T05:24:40;101203.78;;;20.25;73.15
29063;BME280;71206;48.564;-123.458;2023-08-12T05:27:05;101205.79;;;19.49;80.22
29063;BME280;71206;48.564;-123.458;2023-08-12T05:29:35;101204.32;;;19.64;81.35
29063;BME280;71206;48.564;-123.458;2023-08-12T05:31:57;101204.86;;;19.45;82.38
29063;BME280;71206;48.564;-123.458;2023-08-12T05:34:23;101209.17;;;19.75;77.68
29063;BME280;71206;48.564;-123.458;2023-08-12T05:36:50;101209.09;;;20.08;75.50
29063;BME280;71206;48.564;-123.458;2023-08-12T05:39:15;101208.16;;;19.88;76.85
29063;BME280;71206;48.564;-123.458;2023-08-12T05:41:40;101208.69;;;19.96;76.57
29063;BME280;71206;48.564;-123.458;2023-08-12T05:44:07;101209.16;;;20.77;70.94
29063;BME280;71206;48.564;-123.458;2023-08-12T05:46:32;101206.46;;;20.34;72.03
29063;BME280;71206;48.564;-123.458;2023-08-12T05:48:58;101203.96;;;19.86;76.55
29063;BME280;71206;48.564;-123.458;2023-08-12T05:51:23;101204.30;;;20.05;79.07
29063;BME280;71206;48.564;-123.458;2023-08-12T05:53:49;101205.18;;;20.56;72.56
29063;BME280;71206;48.564;-123.458;2023-08-12T05:56:15;101203.25;;;22.33;62.48
29063;BME280;71206;48.564;-123.458;2023-08-12T05:58:41;101208.73;;;22.39;61.26
29063;BME280;71206;48.564;-123.458;2023-08-12T06:01:07;101216.63;;;20.70;66.92
29063;BME280;71206;48.564;-123.458;2023-08-12T06:03:32;101220.15;;;19.79;75.42
29063;BME280;71206;48.564;-123.458;2023-08-12T06:05:58;101222.27;;;19.95;73.71
29063;BME280;71206;48.564;-123.458;2023-08-12T06:08:24;101223.90;;;19.92;74.52
29063;BME280;71206;48.564;-123.458;2023-08-12T06:10:50;101221.90;;;19.69;78.02
29063;BME280;71206;48.564;-123.458;2023-08-12T06:13:15;101223.80;;;20.10;75.87
29063;BME280;71206;48.564;-123.458;2023-08-12T06:15:41;101223.40;;;20.24;73.33
29063;BME280;71206;48.564;-123.458;2023-08-12T06:18:07;101218.29;;;19.96;73.47
29063;BME280;71206;48.564;-123.458;2023-08-12T06:20:33;101214.69;;;19.60;79.03
29063;BME280;71206;48.564;-123.458;2023-08-12T06:23:00;101209.79;;;19.29;80.87
29063;BME280;71206;48.564;-123.458;2023-08-12T06:25:24;101211.24;;;20.18;76.03
29063;BME280;71206;48.564;-123.458;2023-08-12T06:27:50;101208.23;;;20.50;69.28
29063;BME280;71206;48.564;-123.458;2023-08-12T06:30:16;101211.37;;;19.83;74.47
29063;BME280;71206;48.564;-123.458;2023-08-12T06:32:43;101214.32;;;19.82;78.82
29063;BME280;71206;48.564;-123.458;2023-08-12T06:35:08;101216.01;;;19.27;80.50
29063;BME280;71206;48.564;-123.458;2023-08-12T06:37:33;101222.31;;;19.22;81.73
29063;BME280;71206;48.564;-123.458;2023-08-12T06:39:59;101235.94;;;18.75;85.83
29063;BME280;71206;48.564;-123.458;2023-08-12T06:42:26;101231.83;;;19.74;80.30
29063;BME280;71206;48.564;-123.458;2023-08-12T06:44:55;101240.96;;;18.92;88.85
29063;BME280;71206;48.564;-123.458;2023-08-12T06:47:17;101242.20;;;18.64;89.51
29063;BME280;71206;48.564;-123.458;2023-08-12T06:49:43;101245.97;;;18.68;91.09
29063;BME280;71206;48.564;-123.458;2023-08-12T06:52:11;101249.95;;;18.57;91.73
29063;BME280;71206;48.564;-123.458;2023-08-12T06:54:35;101251.83;;;18.87;87.23
29063;BME280;71206;48.564;-123.458;2023-08-12T06:57:00;101251.76;;;18.34;89.90
29063;BME280;71206;48.564;-123.458;2023-08-12T06:59:26;101253.50;;;18.37;91.79
29063;BME280;71206;48.564;-123.458;2023-08-12T07:01:52;101258.26;;;18.26;96.29
29063;BME280;71206;48.564;-123.458;2023-08-12T07:04:18;101263.55;;;17.75;100.00
29063;BME280;71206;48.564;-123.458;2023-08-12T07:06:44;101266.13;;;18.22;91.72
29063;BME280;71206;48.564;-123.458;2023-08-12T07:09:10;101268.76;;;18.39;89.00
29063;BME280;71206;48.564;-123.458;2023-08-12T07:11:35;101272.88;;;18.04;92.10
29063;BME280;71206;48.564;-123.458;2023-08-12T07:14:02;101278.88;;;18.46;91.62
29063;BME280;71206;48.564;-123.458;2023-08-12T07:16:29;101281.39;;;17.85;92.88
29063;BME280;71206;48.564;-123.458;2023-08-12T07:18:53;101286.30;;;18.27;94.82
29063;BME280;71206;48.564;-123.458;2023-08-12T07:21:18;101285.29;;;18.40;95.49
29063;BME280;71206;48.564;-123.458;2023-08-12T07:23:44;101290.06;;;18.55;88.09
29063;BME280;71206;48.564;-123.458;2023-08-12T07:26:10;101293.23;;;19.45;79.61
29063;BME280;71206;48.564;-123.458;2023-08-12T07:28:36;101293.12;;;18.58;85.03
29063;BME280;71206;48.564;-123.458;2023-08-12T07:31:03;101290.83;;;18.72;83.15
29063;BME280;71206;48.564;-123.458;2023-08-12T07:33:28;101289.10;;;19.14;84.13
29063;BME280;71206;48.564;-123.458;2023-08-12T07:35:54;101290.69;;;18.99;81.86
29063;BME280;71206;48.564;-123.458;2023-08-12T07:38:20;101284.93;;;20.32;71.01
29063;BME280;71206;48.564;-123.458;2023-08-12T07:40:45;101293.88;;;19.94;73.66
29063;BME280;71206;48.564;-123.458;2023-08-12T07:43:12;101296.69;;;18.25;88.89
29063;BME280;71206;48.564;-123.458;2023-08-12T07:45:37;101298.46;;;17.94;95.53
29063;BME280;71206;48.564;-123.458;2023-08-12T07:48:03;101304.39;;;17.41;100.00
29063;BME280;71206;48.564;-123.458;2023-08-12T07:50:29;101303.98;;;18.05;97.57
29063;BME280;71206;48.564;-123.458;2023-08-12T07:52:54;101308.91;;;17.48;100.00
29063;BME280;71206;48.564;-123.458;2023-08-12T07:55:20;101309.71;;;17.56;100.00
29063;BME280;71206;48.564;-123.458;2023-08-12T07:57:46;101308.53;;;17.92;100.00
29063;BME280;71206;48.564;-123.458;2023-08-12T08:00:11;101309.09;;;17.47;100.00
29063;BME280;71206;48.564;-123.458;2023-08-12T08:02:35;101310.20;;;17.87;100.00
29063;BME280;71206;48.564;-123.458;2023-08-12T08:05:01;101314.72;;;17.39;100.00
29063;BME280;71206;48.564;-123.458;2023-08-12T08:07:26;101315.09;;;16.88;100.00
29063;BME280;71206;48.564;-123.458;2023-08-12T08:09:52;101319.86;;;17.65;100.00
29063;BME280;71206;48.564;-123.458;2023-08-12T08:12:15;101319.76;;;17.53;100.00
29063;BME280;71206;48.564;-123.458;2023-08-12T08:14:40;101321.30;;;17.32;100.00
29063;BME280;71206;48.564;-123.458;2023-08-12T08:17:06;101324.80;;;17.39;100.00
29063;BME280;71206;48.564;-123.458;2023-08-12T08:19:31;101322.54;;;17.21;100.00
29063;BME280;71206;48.564;-123.458;2023-08-12T08:21:56;101323.99;;;17.12;100.00
29063;BME280;71206;48.564;-123.458;2023-08-12T08:24:21;101324.82;;;17.31;100.00
29063;BME280;71206;48.564;-123.458;2023-08-12T08:26:46;101325.69;;;17.06;100.00
29063;BME280;71206;48.564;-123.458;2023-08-12T08:29:11;101329.07;;;16.87;100.00
29063;BME280;71206;48.564;-123.458;2023-08-12T08:31:36;101330.95;;;17.17;100.00
29063;BME280;71206;48.564;-123.458;2023-08-12T08:34:01;101335.22;;;16.54;100.00
29063;BME280;71206;48.564;-123.458;2023-08-12T08:36:26;101336.91;;;16.18;100.00
29063;BME280;71206;48.564;-123.458;2023-08-12T08:38:51;101335.47;;;17.00;100.00
29063;BME280;71206;48.564;-123.458;2023-08-12T08:41:16;101335.55;;;17.32;100.00
29063;BME280;71206;48.564;-123.458;2023-08-12T08:43:43;101339.49;;;17.71;100.00
29063;BME280;71206;48.564;-123.458;2023-08-12T08:46:07;101340.67;;;17.35;100.00
29063;BME280;71206;48.564;-123.458;2023-08-12T08:48:31;101337.34;;;17.88;98.75
29063;BME280;71206;48.564;-123.458;2023-08-12T08:50:56;101339.09;;;19.45;86.35
29063;BME280;71206;48.564;-123.458;2023-08-12T08:53:21;101335.50;;;20.27;79.17
29063;BME280;71206;48.564;-123.458;2023-08-12T08:55:47;101331.80;;;18.83;88.30
29063;BME280;71206;48.564;-123.458;2023-08-12T08:58:11;101334.11;;;18.08;96.30
29063;BME280;71206;48.564;-123.458;2023-08-12T09:00:37;101335.38;;;17.00;100.00
29063;BME280;71206;48.564;-123.458;2023-08-12T09:03:01;101338.53;;;17.13;100.00
29063;BME280;71206;48.564;-123.458;2023-08-12T09:05:26;101336.60;;;17.17;100.00
29063;BME280;71206;48.564;-123.458;2023-08-12T09:07:53;101335.21;;;17.25;100.00
29063;BME280;71206;48.564;-123.458;2023-08-12T09:10:17;101336.38;;;16.66;100.00
29063;BME280;71206;48.564;-123.458;2023-08-12T09:12:41;101340.18;;;17.09;100.00
29063;BME280;71206;48.564;-123.458;2023-08-12T09:15:06;101339.86;;;16.83;100.00
29063;BME280;71206;48.564;-123.458;2023-08-12T09:17:32;101344.00;;;16.36;100.00
29063;BME280;71206;48.564;-123.458;2023-08-12T09:19:56;101346.29;;;16.86;100.00
29063;BME280;71206;48.564;-123.458;2023-08-12T09:22:25;101350.28;;;16.24;100.00
29063;BME280;71206;48.564;-123.458;2023-08-12T09:24:47;101346.63;;;16.45;100.00
29063;BME280;71206;48.564;-123.458;2023-08-12T09:27:18;101351.72;;;16.69;100.00
29063;BME280;71206;48.564;-123.458;2023-08-12T09:29:37;101357.59;;;16.78;100.00
29063;BME280;71206;48.564;-123.458;2023-08-12T09:32:10;101359.22;;;16.42;100.00
29063;BME280;71206;48.564;-123.458;2023-08-12T09:34:27;101355.14;;;16.44;100.00
29063;BME280;71206;48.564;-123.458;2023-08-12T09:36:52;101357.23;;;15.89;100.00
29063;BME280;71206;48.564;-123.458;2023-08-12T09:39:17;101351.16;;;16.44;100.00
29063;BME280;71206;48.564;-123.458;2023-08-12T09:41:43;101354.10;;;16.09;100.00
29063;BME280;71206;48.564;-123.458;2023-08-12T09:44:10;101353.13;;;16.70;100.00
29063;BME280;71206;48.564;-123.458;2023-08-12T09:46:34;101356.03;;;16.33;100.00
29063;BME280;71206;48.564;-123.458;2023-08-12T09:48:59;101359.34;;;16.40;100.00
29063;BME280;71206;48.564;-123.458;2023-08-12T09:51:22;101368.33;;;16.05;100.00
29063;BME280;71206;48.564;-123.458;2023-08-12T09:53:48;101376.92;;;15.57;100.00
29063;BME280;71206;48.564;-123.458;2023-08-12T09:56:12;101379.17;;;15.39;100.00
29063;BME280;71206;48.564;-123.458;2023-08-12T09:58:38;101381.79;;;15.39;100.00
29063;BME280;71206;48.564;-123.458;2023-08-12T10:01:03;101383.99;;;15.17;100.00
29063;BME280;71206;48.564;-123.458;2023-08-12T10:03:29;101380.93;;;15.38;100.00
29063;BME280;71206;48.564;-123.458;2023-08-12T10:05:53;101380.25;;;16.01;100.00
29063;BME280;71206;48.564;-123.458;2023-08-12T10:08:19;101373.94;;;16.57;100.00
29063;BME280;71206;48.564;-123.458;2023-08-12T10:10:43;101373.22;;;16.46;100.00
29063;BME280;71206;48.564;-123.458;2023-08-12T10:13:08;101378.59;;;16.56;100.00
29063;BME280;71206;48.564;-123.458;2023-08-12T10:15:36;101383.76;;;16.49;100.00
29063;BME280;71206;48.564;-123.458;2023-08-12T10:17:58;101381.40;;;16.62;100.00
29063;BME280;71206;48.564;-123.458;2023-08-12T10:20:25;101380.74;;;16.06;100.00
29063;BME280;71206;48.564;-123.458;2023-08-12T10:22:49;101385.21;;;16.27;100.00
29063;BME280;71206;48.564;-123.458;2023-08-12T10:25:14;101388.09;;;15.97;100.00
29063;BME280;71206;48.564;-123.458;2023-08-12T10:27:38;101386.98;;;15.04;100.00
29063;BME280;71206;48.564;-123.458;2023-08-12T10:30:04;101391.34;;;15.49;100.00
29063;BME280;71206;48.564;-123.458;2023-08-12T10:32:30;101396.52;;;15.14;100.00
29063;BME280;71206;48.564;-123.458;2023-08-12T10:34:56;101395.73;;;14.78;100.00
29063;BME280;71206;48.564;-123.458;2023-08-12T10:37:18;101393.82;;;15.02;100.00
29063;BME280;71206;48.564;-123.458;2023-08-12T10:39:46;101392.43;;;15.44;100.00
29063;BME280;71206;48.564;-123.458;2023-08-12T10:42:09;101391.94;;;15.16;100.00
29063;BME280;71206;48.564;-123.458;2023-08-12T10:44:39;101391.22;;;15.63;100.00
29063;BME280;71206;48.564;-123.458;2023-08-12T10:46:59;101394.79;;;15.61;100.00
29063;BME280;71206;48.564;-123.458;2023-08-12T10:49:24;101394.67;;;15.12;100.00
29063;BME280;71206;48.564;-123.458;2023-08-12T10:51:52;101394.94;;;15.56;100.00
29063;BME280;71206;48.564;-123.458;2023-08-12T10:54:16;101396.73;;;15.08;100.00
29063;BME280;71206;48.564;-123.458;2023-08-12T10:59:04;101394.69;;;14.62;100.00
29063;BME280;71206;48.564;-123.458;2023-08-12T11:01:31;101402.24;;;14.98;100.00
29063;BME280;71206;48.564;-123.458;2023-08-12T11:03:54;101406.31;;;15.20;100.00
29063;BME280;71206;48.564;-123.458;2023-08-12T11:06:23;101404.36;;;15.54;100.00
29063;BME280;71206;48.564;-123.458;2023-08-12T11:08:48;101398.93;;;14.87;100.00
29063;BME280;71206;48.564;-123.458;2023-08-12T11:11:20;101395.77;;;14.44;100.00
29063;BME280;71206;48.564;-123.458;2023-08-12T11:13:46;101401.65;;;15.03;100.00
29063;BME280;71206;48.564;-123.458;2023-08-12T11:16:07;101404.17;;;16.20;100.00
29063;BME280;71206;48.564;-123.458;2023-08-12T11:18:29;101407.16;;;15.36;100.00
29063;BME280;71206;48.564;-123.458;2023-08-12T11:20:51;101406.87;;;15.13;100.00
29063;BME280;71206;48.564;-123.458;2023-08-12T11:23:16;101404.49;;;14.95;100.00
29063;BME280;71206;48.564;-123.458;2023-08-12T11:25:42;101405.71;;;14.31;100.00
29063;BME280;71206;48.564;-123.458;2023-08-12T11:28:07;101405.02;;;14.98;100.00
29063;BME280;71206;48.564;-123.458;2023-08-12T11:30:31;101404.52;;;14.89;100.00
29063;BME280;71206;48.564;-123.458;2023-08-12T11:32:56;101401.34;;;14.84;100.00
29063;BME280;71206;48.564;-123.458;2023-08-12T11:35:22;101400.97;;;14.65;100.00
29063;BME280;71206;48.564;-123.458;2023-08-12T11:37:48;101399.02;;;15.41;100.00
29063;BME280;71206;48.564;-123.458;2023-08-12T11:40:14;101400.64;;;15.55;100.00
29063;BME280;71206;48.564;-123.458;2023-08-12T11:42:36;101400.94;;;16.27;100.00
29063;BME280;71206;48.564;-123.458;2023-08-12T11:45:02;101395.84;;;16.60;100.00
29063;BME280;71206;48.564;-123.458;2023-08-12T11:47:26;101397.12;;;17.19;100.00
29063;BME280;71206;48.564;-123.458;2023-08-12T11:49:53;101401.67;;;16.56;100.00
29063;BME280;71206;48.564;-123.458;2023-08-12T11:52:16;101399.95;;;16.74;100.00
29063;BME280;71206;48.564;-123.458;2023-08-12T11:54:41;101403.30;;;16.81;100.00
29063;BME280;71206;48.564;-123.458;2023-08-12T11:57:06;101410.68;;;15.87;100.00
29063;BME280;71206;48.564;-123.458;2023-08-12T11:59:32;101409.04;;;16.38;100.00
29063;BME280;71206;48.564;-123.458;2023-08-12T12:01:57;101416.00;;;16.33;100.00
29063;BME280;71206;48.564;-123.458;2023-08-12T12:04:22;101418.76;;;16.03;100.00
29063;BME280;71206;48.564;-123.458;2023-08-12T12:06:47;101418.06;;;15.42;100.00
29063;BME280;71206;48.564;-123.458;2023-08-12T12:09:12;101416.46;;;15.24;100.00
29063;BME280;71206;48.564;-123.458;2023-08-12T12:11:38;101416.68;;;15.12;100.00